sensor_id;sensor_type;location;lat;lon;timestamp;pressure;altitude;pressure_sealevel;temperature;humidity
71735;BME280;59577;52.122;5.406;2023-04-10T00:00:00;102195.31;;;7.84;79.25
71735;BME280;59577;52.122;5.406;2023-04-10T00:02:27;102180.81;;;7.80;78.98
71735;BME280;59577;52.122;5.406;2023-04-10T00:04:54;102180.53;;;7.82;78.76
71735;BME280;59577;52.122;5.406;2023-04-10T00:07:20;102172.72;;;7.80;78.30
71735;BME280;59577;52.122;5.406;2023-04-10T00:09:47;102171.44;;;7.78;78.14
71735;BME280;59577;52.122;5.406;2023-04-10T00:12:14;102163.06;;;7.79;77.59
71735;BME280;59577;52.122;5.406;2023-04-10T00:14:41;102167.66;;;7.79;76.95
71735;BME280;59577;52.122;5.406;2023-04-10T00:17:07;102163.84;;;7.80;77.24
71735;BME280;59577;52.122;5.406;2023-04-10T00:19:34;102160.66;;;7.78;77.26
71735;BME280;59577;52.122;5.406;2023-04-10T00:22:00;102160.66;;;7.78;77.14
71735;BME280;59577;52.122;5.406;2023-04-10T00:24:27;102148.28;;;7.77;77.16
71735;BME280;59577;52.122;5.406;2023-04-10T00:26:54;102138.13;;;7.74;77.39
71735;BME280;59577;52.122;5.406;2023-04-10T00:29:22;102145.69;;;7.71;77.42
71735;BME280;59577;52.122;5.406;2023-04-10T00:31:49;102134.59;;;7.73;77.52
71735;BME280;59577;52.122;5.406;2023-04-10T00:34:16;102134.59;;;7.73;77.43
71735;BME280;59577;52.122;5.406;2023-04-10T00:36:44;102126.81;;;7.71;77.05
71735;BME280;59577;52.122;5.406;2023-04-10T00:39:12;102117.94;;;7.71;76.94
71735;BME280;59577;52.122;5.406;2023-04-10T00:41:39;102117.16;;;7.70;77.08
71735;BME280;59577;52.122;5.406;2023-04-10T00:44:06;102117.44;;;7.69;76.55
71735;BME280;59577;52.122;5.406;2023-04-10T00:46:36;102115.84;;;7.68;76.79
71735;BME280;59577;52.122;5.406;2023-04-10T00:49:03;102114.84;;;7.64;76.70
71735;BME280;59577;52.122;5.406;2023-04-10T00:51:30;102121.94;;;7.60;76.50
71735;BME280;59577;52.122;5.406;2023-04-10T00:53:59;102116.66;;;7.55;76.45
71735;BME280;59577;52.122;5.406;2023-04-10T00:56:29;102118.63;;;7.49;75.97
71735;BME280;59577;52.122;5.406;2023-04-10T00:59:06;102108.97;;;7.48;75.99
71735;BME280;59577;52.122;5.406;2023-04-10T01:01:33;102106.28;;;7.48;75.72
71735;BME280;59577;52.122;5.406;2023-04-10T01:03:59;102108.97;;;7.48;75.97
71735;BME280;59577;52.122;5.406;2023-04-10T01:06:46;102103.59;;;7.48;75.71
71735;BME280;59577;52.122;5.406;2023-04-10T01:09:37;102100.78;;;7.53;75.31
71735;BME280;59577;52.122;5.406;2023-04-10T01:15:17;102106.66;;;7.55;75.37
71735;BME280;59577;52.122;5.406;2023-04-10T01:20:24;102097.19;;;7.58;75.00
71735;BME280;59577;52.122;5.406;2023-04-10T01:28:29;102071.94;;;7.53;75.04
71735;BME280;59577;52.122;5.406;2023-04-10T01:31:00;102077.03;;;7.55;75.48
71735;BME280;59577;52.122;5.406;2023-04-10T01:33:34;102073.84;;;7.53;75.61
71735;BME280;59577;52.122;5.406;2023-04-10T01:36:04;102074.34;;;7.55;75.63
71735;BME280;59577;52.122;5.406;2023-04-10T01:38:32;102067.34;;;7.54;75.52
71735;BME280;59577;52.122;5.406;2023-04-10T01:41:00;102067.88;;;7.56;75.33
71735;BME280;59577;52.122;5.406;2023-04-10T01:43:28;102065.38;;;7.60;75.21
71735;BME280;59577;52.122;5.406;2023-04-10T01:45:57;102065.84;;;7.62;75.06
71735;BME280;59577;52.122;5.406;2023-04-10T01:48:25;102060.16;;;7.63;74.90
71735;BME280;59577;52.122;5.406;2023-04-10T01:50:53;102056.84;;;7.66;75.01
71735;BME280;59577;52.122;5.406;2023-04-10T01:53:20;102050.56;;;7.71;74.87
71735;BME280;59577;52.122;5.406;2023-04-10T01:55:49;102055.66;;;7.72;74.85
71735;BME280;59577;52.122;5.406;2023-04-10T01:58:16;102058.06;;;7.74;74.54
71735;BME280;59577;52.122;5.406;2023-04-10T02:00:43;102056.63;;;7.77;74.19
71735;BME280;59577;52.122;5.406;2023-04-10T02:03:10;102046.97;;;7.76;74.78
71735;BME280;59577;52.122;5.406;2023-04-10T02:05:47;102043.97;;;7.77;74.88
71735;BME280;59577;52.122;5.406;2023-04-10T02:08:23;102047.16;;;7.79;74.61
71735;BME280;59577;52.122;5.406;2023-04-10T02:13:33;102049.06;;;7.79;74.45
71735;BME280;59577;52.122;5.406;2023-04-10T02:16:03;102046.03;;;7.80;74.28
71735;BME280;59577;52.122;5.406;2023-04-10T02:18:33;102042.06;;;7.78;74.85
71735;BME280;59577;52.122;5.406;2023-04-10T02:21:01;102050.94;;;7.78;74.21
71735;BME280;59577;52.122;5.406;2023-04-10T02:23:29;102043.97;;;7.77;74.33
71735;BME280;59577;52.122;5.406;2023-04-10T02:25:55;102041.78;;;7.79;74.32
71735;BME280;59577;52.122;5.406;2023-04-10T02:28:24;102037.47;;;7.78;74.59
71735;BME280;59577;52.122;5.406;2023-04-10T02:30:51;102035.59;;;7.79;74.03
71735;BME280;59577;52.122;5.406;2023-04-10T02:33:18;102034.47;;;7.80;74.16
71735;BME280;59577;52.122;5.406;2023-04-10T02:35:44;102035.28;;;7.80;74.46
71735;BME280;59577;52.122;5.406;2023-04-10T02:38:11;102038.28;;;7.79;74.56
71735;BME280;59577;52.122;5.406;2023-04-10T02:40:38;102036.38;;;7.79;74.31
71735;BME280;59577;52.122;5.406;2023-04-10T02:43:04;102037.78;;;7.77;73.98
71735;BME280;59577;52.122;5.406;2023-04-10T02:45:31;102040.47;;;7.77;74.01
71735;BME280;59577;52.122;5.406;2023-04-10T02:47:58;102028.59;;;7.78;74.02
71735;BME280;59577;52.122;5.406;2023-04-10T02:50:25;102028.31;;;7.79;74.23
71735;BME280;59577;52.122;5.406;2023-04-10T02:52:55;102034.00;;;7.78;74.29
71735;BME280;59577;52.122;5.406;2023-04-10T02:55:22;102035.06;;;7.77;73.89
71735;BME280;59577;52.122;5.406;2023-04-10T02:57:48;102028.91;;;7.76;74.39
71735;BME280;59577;52.122;5.406;2023-04-10T03:00:15;102032.69;;;7.75;74.11
71735;BME280;59577;52.122;5.406;2023-04-10T03:02:42;102037.59;;;7.73;74.53
71735;BME280;59577;52.122;5.406;2023-04-10T03:05:08;102041.69;;;7.70;74.24
71735;BME280;59577;52.122;5.406;2023-04-10T03:07:35;102044.97;;;7.67;74.59
71735;BME280;59577;52.122;5.406;2023-04-10T03:10:02;102045.28;;;7.66;74.21
71735;BME280;59577;52.122;5.406;2023-04-10T03:12:28;102042.28;;;7.67;74.14
71735;BME280;59577;52.122;5.406;2023-04-10T03:14:55;102040.69;;;7.66;74.36
71735;BME280;59577;52.122;5.406;2023-04-10T03:17:21;102038.63;;;7.63;74.69
71735;BME280;59577;52.122;5.406;2023-04-10T03:19:53;102041.59;;;7.62;74.57
71735;BME280;59577;52.122;5.406;2023-04-10T03:22:20;102037.91;;;7.58;74.46
71735;BME280;59577;52.122;5.406;2023-04-10T03:24:46;102036.03;;;7.58;74.76
71735;BME280;59577;52.122;5.406;2023-04-10T03:27:15;102040.59;;;7.58;74.50
71735;BME280;59577;52.122;5.406;2023-04-10T03:29:42;102033.94;;;7.55;74.82
71735;BME280;59577;52.122;5.406;2023-04-10T03:32:09;102031.22;;;7.55;74.73
71735;BME280;59577;52.122;5.406;2023-04-10T03:34:35;102031.22;;;7.55;74.50
71735;BME280;59577;52.122;5.406;2023-04-10T03:37:02;102023.44;;;7.53;74.57
71735;BME280;59577;52.122;5.406;2023-04-10T03:39:29;102024.03;;;7.50;74.87
71735;BME280;59577;52.122;5.406;2023-04-10T03:41:55;102028.16;;;7.48;74.98
71735;BME280;59577;52.122;5.406;2023-04-10T03:44:22;102017.97;;;7.45;74.85
71735;BME280;59577;52.122;5.406;2023-04-10T03:46:49;102013.97;;;7.42;74.86
71735;BME280;59577;52.122;5.406;2023-04-10T03:49:16;102015.09;;;7.41;74.93
71735;BME280;59577;52.122;5.406;2023-04-10T03:51:42;102016.47;;;7.39;75.14
71735;BME280;59577;52.122;5.406;2023-04-10T03:54:09;102006.00;;;7.37;74.94
71735;BME280;59577;52.122;5.406;2023-04-10T03:56:36;102013.28;;;7.37;75.18
71735;BME280;59577;52.122;5.406;2023-04-10T03:59:02;102014.69;;;7.34;75.47
71735;BME280;59577;52.122;5.406;2023-04-10T04:01:29;102009.59;;;7.32;75.48
71735;BME280;59577;52.122;5.406;2023-04-10T04:03:56;102010.19;;;7.29;75.49
71735;BME280;59577;52.122;5.406;2023-04-10T04:06:23;101998.13;;;7.27;75.40
71735;BME280;59577;52.122;5.406;2023-04-10T04:08:49;101994.63;;;7.26;75.19
71735;BME280;59577;52.122;5.406;2023-04-10T04:11:16;101987.97;;;7.24;75.19
71735;BME280;59577;52.122;5.406;2023-04-10T04:13:42;101985.28;;;7.24;75.38
71735;BME280;59577;52.122;5.406;2023-04-10T04:16:09;101984.16;;;7.25;75.36
71735;BME280;59577;52.122;5.406;2023-04-10T04:18:37;101982.56;;;7.24;75.35
71735;BME280;59577;52.122;5.406;2023-04-10T04:21:03;101994.13;;;7.24;75.45
71735;BME280;59577;52.122;5.406;2023-04-10T04:23:30;101980.19;;;7.22;75.48
71735;BME280;59577;52.122;5.406;2023-04-10T04:25:57;101994.72;;;7.21;75.35
71735;BME280;59577;52.122;5.406;2023-04-10T04:28:23;101986.44;;;7.18;75.45
71735;BME280;59577;52.122;5.406;2023-04-10T04:30:50;101992.44;;;7.14;75.57
71735;BME280;59577;52.122;5.406;2023-04-10T04:33:16;101993.84;;;7.12;75.87
71735;BME280;59577;52.122;5.406;2023-04-10T04:35:43;101984.47;;;7.09;75.66
71735;BME280;59577;52.122;5.406;2023-04-10T04:38:09;101978.78;;;7.11;75.62
71735;BME280;59577;52.122;5.406;2023-04-10T04:40:36;101976.91;;;7.11;75.88
71735;BME280;59577;52.122;5.406;2023-04-10T04:43:02;101980.69;;;7.10;75.57
71735;BME280;59577;52.122;5.406;2023-04-10T04:45:28;101973.69;;;7.09;75.52
71735;BME280;59577;52.122;5.406;2023-04-10T04:47:56;101971.81;;;7.10;75.73
71735;BME280;59577;52.122;5.406;2023-04-10T04:50:23;101968.81;;;7.11;75.44
71735;BME280;59577;52.122;5.406;2023-04-10T04:52:49;101966.63;;;7.13;75.63
71735;BME280;59577;52.122;5.406;2023-04-10T04:55:16;101965.00;;;7.12;75.41
71735;BME280;59577;52.122;5.406;2023-04-10T04:57:42;101966.91;;;7.12;75.55
71735;BME280;59577;52.122;5.406;2023-04-10T05:00:09;101978.19;;;7.14;75.21
71735;BME280;59577;52.122;5.406;2023-04-10T05:02:39;101973.09;;;7.12;75.44
71735;BME280;59577;52.122;5.406;2023-04-10T05:05:11;101972.00;;;7.13;75.37
71735;BME280;59577;52.122;5.406;2023-04-10T05:07:37;101969.31;;;7.13;74.98
71735;BME280;59577;52.122;5.406;2023-04-10T05:10:05;101969.31;;;7.13;75.05
71735;BME280;59577;52.122;5.406;2023-04-10T05:12:31;101960.44;;;7.13;75.15
71735;BME280;59577;52.122;5.406;2023-04-10T05:14:58;101960.94;;;7.15;75.22
71735;BME280;59577;52.122;5.406;2023-04-10T05:17:25;101955.25;;;7.17;75.08
71735;BME280;59577;52.122;5.406;2023-04-10T05:19:51;101958.16;;;7.20;74.53
71735;BME280;59577;52.122;5.406;2023-04-10T05:22:18;101958.16;;;7.20;74.46
71735;BME280;59577;52.122;5.406;2023-04-10T05:24:44;101968.19;;;7.28;74.94
71735;BME280;59577;52.122;5.406;2023-04-10T05:27:11;101967.28;;;7.47;74.37
71735;BME280;59577;52.122;5.406;2023-04-10T05:29:37;101970.66;;;7.52;73.80
71735;BME280;59577;52.122;5.406;2023-04-10T05:32:04;101959.09;;;7.52;73.63
71735;BME280;59577;52.122;5.406;2023-04-10T05:34:31;101955.78;;;7.55;73.80
71735;BME280;59577;52.122;5.406;2023-04-10T05:36:57;101958.69;;;7.59;73.35
71735;BME280;59577;52.122;5.406;2023-04-10T05:39:24;101952.38;;;7.63;73.56
71735;BME280;59577;52.122;5.406;2023-04-10T05:41:51;101951.97;;;7.70;72.64
71735;BME280;59577;52.122;5.406;2023-04-10T05:44:17;101948.22;;;7.80;72.69
71735;BME280;59577;52.122;5.406;2023-04-10T05:46:44;101955.47;;;7.93;72.31
71735;BME280;59577;52.122;5.406;2023-04-10T05:49:11;101952.13;;;8.10;71.96
71735;BME280;59577;52.122;5.406;2023-04-10T05:51:37;101949.56;;;8.36;71.71
71735;BME280;59577;52.122;5.406;2023-04-10T05:54:04;101947.22;;;8.66;70.56
71735;BME280;59577;52.122;5.406;2023-04-10T05:56:30;101948.22;;;8.79;69.94
71735;BME280;59577;52.122;5.406;2023-04-10T05:58:57;101948.78;;;8.98;69.41
71735;BME280;59577;52.122;5.406;2023-04-10T06:01:23;101949.13;;;9.14;68.78
71735;BME280;59577;52.122;5.406;2023-04-10T06:03:49;101940.25;;;9.22;68.12
71735;BME280;59577;52.122;5.406;2023-04-10T06:06:16;101945.81;;;9.26;67.71
71735;BME280;59577;52.122;5.406;2023-04-10T06:08:44;101945.97;;;9.21;67.86
71735;BME280;59577;52.122;5.406;2023-04-10T06:11:10;101935.47;;;9.11;67.91
71735;BME280;59577;52.122;5.406;2023-04-10T06:13:37;101930.69;;;9.08;67.88
71735;BME280;59577;52.122;5.406;2023-04-10T06:16:04;101943.22;;;9.03;67.82
71735;BME280;59577;52.122;5.406;2023-04-10T06:18:34;101935.59;;;9.06;68.22
71735;BME280;59577;52.122;5.406;2023-04-10T06:21:00;101926.06;;;9.08;67.72
71735;BME280;59577;52.122;5.406;2023-04-10T06:23:27;101922.44;;;9.13;67.59
71735;BME280;59577;52.122;5.406;2023-04-10T06:25:54;101918.31;;;9.15;67.37
71735;BME280;59577;52.122;5.406;2023-04-10T06:28:21;101915.44;;;9.12;67.10
71735;BME280;59577;52.122;5.406;2023-04-10T06:30:48;101911.78;;;9.16;67.47
71735;BME280;59577;52.122;5.406;2023-04-10T06:33:14;101914.34;;;9.21;66.90
71735;BME280;59577;52.122;5.406;2023-04-10T06:35:41;101903.53;;;9.21;66.90
71735;BME280;59577;52.122;5.406;2023-04-10T06:38:09;101906.25;;;9.21;66.96
71735;BME280;59577;52.122;5.406;2023-04-10T06:40:35;101894.50;;;9.26;66.85
71735;BME280;59577;52.122;5.406;2023-04-10T06:43:11;101896.56;;;9.38;67.07
71735;BME280;59577;52.122;5.406;2023-04-10T06:45:38;101886.56;;;9.47;67.02
71735;BME280;59577;52.122;5.406;2023-04-10T06:48:05;101875.75;;;9.56;66.36
71735;BME280;59577;52.122;5.406;2023-04-10T06:50:41;101881.31;;;9.59;65.95
71735;BME280;59577;52.122;5.406;2023-04-10T06:53:07;101866.84;;;9.64;65.82
71735;BME280;59577;52.122;5.406;2023-04-10T06:55:34;101870.63;;;9.72;65.35
71735;BME280;59577;52.122;5.406;2023-04-10T06:58:07;101866.34;;;9.79;65.11
71735;BME280;59577;52.122;5.406;2023-04-10T07:00:33;101855.84;;;9.87;64.50
71735;BME280;59577;52.122;5.406;2023-04-10T07:03:00;101858.19;;;9.97;64.72
71735;BME280;59577;52.122;5.406;2023-04-10T07:05:27;101850.06;;;10.06;63.82
71735;BME280;59577;52.122;5.406;2023-04-10T07:07:53;101852.09;;;10.18;63.76
71735;BME280;59577;52.122;5.406;2023-04-10T07:10:20;101847.44;;;10.27;63.14
71735;BME280;59577;52.122;5.406;2023-04-10T07:12:47;101832.44;;;10.47;62.28
71735;BME280;59577;52.122;5.406;2023-04-10T07:15:14;101832.78;;;10.66;61.34
71735;BME280;59577;52.122;5.406;2023-04-10T07:17:44;101827.09;;;10.89;60.90
71735;BME280;59577;52.122;5.406;2023-04-10T07:20:25;101821.53;;;11.27;59.01
71735;BME280;59577;52.122;5.406;2023-04-10T07:22:53;101809.56;;;11.28;58.91
71735;BME280;59577;52.122;5.406;2023-04-10T07:25:35;101814.28;;;11.53;59.23
71735;BME280;59577;52.122;5.406;2023-04-10T07:28:01;101800.81;;;11.77;58.57
71735;BME280;59577;52.122;5.406;2023-04-10T07:30:41;101798.59;;;12.04;57.59
71735;BME280;59577;52.122;5.406;2023-04-10T07:33:31;101800.19;;;12.30;56.73
71735;BME280;59577;52.122;5.406;2023-04-10T07:35:58;101802.00;;;12.50;55.62
71735;BME280;59577;52.122;5.406;2023-04-10T07:38:24;101794.41;;;12.81;55.07
71735;BME280;59577;52.122;5.406;2023-04-10T07:41:06;101796.66;;;13.19;53.80
71735;BME280;59577;52.122;5.406;2023-04-10T07:43:38;101791.03;;;13.40;52.82
71735;BME280;59577;52.122;5.406;2023-04-10T07:46:08;101795.41;;;13.89;51.86
71735;BME280;59577;52.122;5.406;2023-04-10T07:48:34;101785.50;;;14.48;51.90
71735;BME280;59577;52.122;5.406;2023-04-10T07:51:02;101790.34;;;15.29;49.62
71735;BME280;59577;52.122;5.406;2023-04-10T07:53:28;101781.09;;;15.76;47.35
71735;BME280;59577;52.122;5.406;2023-04-10T07:56:20;101779.25;;;16.07;46.95
71735;BME280;59577;52.122;5.406;2023-04-10T07:58:53;101770.94;;;16.23;46.27
71735;BME280;59577;52.122;5.406;2023-04-10T08:01:30;101772.31;;;15.67;47.29
71735;BME280;59577;52.122;5.406;2023-04-10T08:03:56;101774.06;;;14.94;47.84
71735;BME280;59577;52.122;5.406;2023-04-10T08:06:23;101767.66;;;14.15;49.48
71735;BME280;59577;52.122;5.406;2023-04-10T08:08:51;101755.72;;;13.72;50.44
71735;BME280;59577;52.122;5.406;2023-04-10T08:11:27;101767.19;;;13.49;51.33
71735;BME280;59577;52.122;5.406;2023-04-10T08:13:55;101763.53;;;13.29;51.75
71735;BME280;59577;52.122;5.406;2023-04-10T08:16:24;101764.63;;;13.12;52.07
71735;BME280;59577;52.122;5.406;2023-04-10T08:18:51;101763.34;;;13.22;52.59
71735;BME280;59577;52.122;5.406;2023-04-10T08:21:20;101757.19;;;13.38;52.33
71735;BME280;59577;52.122;5.406;2023-04-10T08:23:49;101762.03;;;13.60;52.41
71735;BME280;59577;52.122;5.406;2023-04-10T08:26:17;101755.81;;;13.76;51.48
71735;BME280;59577;52.122;5.406;2023-04-10T08:28:49;101761.00;;;13.81;51.57
71735;BME280;59577;52.122;5.406;2023-04-10T08:31:19;101756.59;;;13.92;51.62
71735;BME280;59577;52.122;5.406;2023-04-10T08:33:47;101749.41;;;13.84;51.23
71735;BME280;59577;52.122;5.406;2023-04-10T08:36:26;101742.47;;;13.70;51.08
71735;BME280;59577;52.122;5.406;2023-04-10T08:38:53;101741.59;;;13.66;52.06
71735;BME280;59577;52.122;5.406;2023-04-10T08:41:20;101724.22;;;13.55;51.91
71735;BME280;59577;52.122;5.406;2023-04-10T08:43:47;101721.50;;;13.55;52.26
71735;BME280;59577;52.122;5.406;2023-04-10T08:46:15;101726.28;;;13.46;53.09
71735;BME280;59577;52.122;5.406;2023-04-10T08:49:01;101729.00;;;13.46;53.28
71735;BME280;59577;52.122;5.406;2023-04-10T08:51:31;101727.81;;;13.43;52.94
71735;BME280;59577;52.122;5.406;2023-04-10T08:54:05;101719.84;;;13.22;53.29
71735;BME280;59577;52.122;5.406;2023-04-10T08:56:34;101720.34;;;13.12;53.17
71735;BME280;59577;52.122;5.406;2023-04-10T08:59:10;101719.06;;;12.93;54.23
71735;BME280;59577;52.122;5.406;2023-04-10T09:01:42;101713.97;;;12.92;54.25
71735;BME280;59577;52.122;5.406;2023-04-10T09:04:18;101716.03;;;12.83;54.35
71735;BME280;59577;52.122;5.406;2023-04-10T09:06:59;101714.44;;;12.82;54.75
71735;BME280;59577;52.122;5.406;2023-04-10T09:09:28;101708.38;;;12.72;54.36
71735;BME280;59577;52.122;5.406;2023-04-10T09:11:59;101696.16;;;12.66;54.66
71735;BME280;59577;52.122;5.406;2023-04-10T09:14:39;101695.16;;;12.71;55.16
71735;BME280;59577;52.122;5.406;2023-04-10T09:17:20;101694.81;;;12.72;54.61
71735;BME280;59577;52.122;5.406;2023-04-10T09:19:54;101688.00;;;12.66;54.54
71735;BME280;59577;52.122;5.406;2023-04-10T09:22:31;101690.19;;;12.60;54.60
71735;BME280;59577;52.122;5.406;2023-04-10T09:25:00;101677.28;;;12.57;55.63
71735;BME280;59577;52.122;5.406;2023-04-10T09:27:30;101681.16;;;12.56;55.64
71735;BME280;59577;52.122;5.406;2023-04-10T09:29:57;101675.78;;;12.44;55.89
71735;BME280;59577;52.122;5.406;2023-04-10T09:32:39;101666.81;;;12.44;56.43
71735;BME280;59577;52.122;5.406;2023-04-10T09:35:08;101663.50;;;12.50;55.79
71735;BME280;59577;52.122;5.406;2023-04-10T09:37:35;101662.06;;;12.53;56.24
71735;BME280;59577;52.122;5.406;2023-04-10T09:40:03;101651.97;;;12.53;56.14
71735;BME280;59577;52.122;5.406;2023-04-10T09:42:34;101646.28;;;12.58;56.42
71735;BME280;59577;52.122;5.406;2023-04-10T09:45:03;101641.69;;;12.75;56.79
71735;BME280;59577;52.122;5.406;2023-04-10T09:47:30;101638.97;;;12.75;56.08
71735;BME280;59577;52.122;5.406;2023-04-10T09:49:59;101630.13;;;12.78;56.43
71735;BME280;59577;52.122;5.406;2023-04-10T09:52:26;101625.78;;;12.89;56.00
71735;BME280;59577;52.122;5.406;2023-04-10T09:54:55;101624.91;;;13.01;55.77
71735;BME280;59577;52.122;5.406;2023-04-10T09:57:23;101618.50;;;12.93;55.36
71735;BME280;59577;52.122;5.406;2023-04-10T09:59:52;101627.38;;;13.06;55.26
71735;BME280;59577;52.122;5.406;2023-04-10T10:02:22;101620.22;;;13.14;54.97
71735;BME280;59577;52.122;5.406;2023-04-10T10:04:49;101609.25;;;13.26;55.04
71735;BME280;59577;52.122;5.406;2023-04-10T10:07:21;101608.75;;;13.37;54.66
71735;BME280;59577;52.122;5.406;2023-04-10T10:09:50;101606.56;;;13.42;54.77
71735;BME280;59577;52.122;5.406;2023-04-10T10:15:08;101603.91;;;13.62;54.63
71735;BME280;59577;52.122;5.406;2023-04-10T10:20:43;101588.56;;;13.89;54.02
71735;BME280;59577;52.122;5.406;2023-04-10T10:23:11;101583.34;;;14.00;53.86
71735;BME280;59577;52.122;5.406;2023-04-10T10:25:38;101586.53;;;14.02;53.92
71735;BME280;59577;52.122;5.406;2023-04-10T10:28:05;101574.91;;;14.05;53.16
71735;BME280;59577;52.122;5.406;2023-04-10T10:30:33;101566.91;;;14.12;53.76
71735;BME280;59577;52.122;5.406;2023-04-10T10:33:02;101565.59;;;14.25;53.63
71735;BME280;59577;52.122;5.406;2023-04-10T10:35:43;101557.50;;;14.29;53.31
71735;BME280;59577;52.122;5.406;2023-04-10T10:38:19;101549.75;;;14.51;53.38
71735;BME280;59577;52.122;5.406;2023-04-10T10:41:09;101542.56;;;14.62;52.43
71735;BME280;59577;52.122;5.406;2023-04-10T10:46:23;101533.63;;;14.61;51.51
71735;BME280;59577;52.122;5.406;2023-04-10T10:48:59;101526.72;;;14.68;51.73
71735;BME280;59577;52.122;5.406;2023-04-10T10:51:49;101527.22;;;14.73;51.62
71735;BME280;59577;52.122;5.406;2023-04-10T10:54:32;101521.81;;;14.77;51.73
71735;BME280;59577;52.122;5.406;2023-04-10T10:57:00;101519.13;;;15.03;51.56
71735;BME280;59577;52.122;5.406;2023-04-10T11:02:16;101515.63;;;15.56;50.29
71735;BME280;59577;52.122;5.406;2023-04-10T11:04:47;101506.88;;;15.74;50.26
71735;BME280;59577;52.122;5.406;2023-04-10T11:07:15;101498.38;;;16.09;49.88
71735;BME280;59577;52.122;5.406;2023-04-10T11:12:17;101495.19;;;16.41;48.69
71735;BME280;59577;52.122;5.406;2023-04-10T11:14:55;101474.50;;;16.40;48.07
71735;BME280;59577;52.122;5.406;2023-04-10T11:18:00;101471.00;;;16.84;48.57
71735;BME280;59577;52.122;5.406;2023-04-10T11:20:27;101471.78;;;16.85;47.43
71735;BME280;59577;52.122;5.406;2023-04-10T11:28:37;101460.81;;;16.40;47.83
71735;BME280;59577;52.122;5.406;2023-04-10T11:31:21;101457.97;;;16.26;48.51
71735;BME280;59577;52.122;5.406;2023-04-10T11:34:00;101458.91;;;16.41;48.78
71735;BME280;59577;52.122;5.406;2023-04-10T11:36:27;101439.84;;;16.51;48.91
71735;BME280;59577;52.122;5.406;2023-04-10T11:39:04;101449.56;;;16.45;48.56
71735;BME280;59577;52.122;5.406;2023-04-10T11:41:33;101445.25;;;16.44;48.67
71735;BME280;59577;52.122;5.406;2023-04-10T11:44:01;101437.91;;;16.52;48.66
71735;BME280;59577;52.122;5.406;2023-04-10T11:46:29;101424.38;;;16.66;48.29
71735;BME280;59577;52.122;5.406;2023-04-10T11:49:04;101417.31;;;16.62;48.40
71735;BME280;59577;52.122;5.406;2023-04-10T11:51:31;101419.66;;;16.63;48.65
71735;BME280;59577;52.122;5.406;2023-04-10T11:54:09;101412.97;;;16.61;48.22
71735;BME280;59577;52.122;5.406;2023-04-10T11:56:37;101414.53;;;16.58;48.76
71735;BME280;59577;52.122;5.406;2023-04-10T11:59:04;101414.53;;;16.58;48.49
71735;BME280;59577;52.122;5.406;2023-04-10T12:01:39;101405.25;;;16.66;48.89
71735;BME280;59577;52.122;5.406;2023-04-10T12:04:19;101402.31;;;16.97;49.13
71735;BME280;59577;52.122;5.406;2023-04-10T12:06:48;101400.78;;;16.99;48.10
71735;BME280;59577;52.122;5.406;2023-04-10T12:09:18;101382.78;;;16.95;48.26
71735;BME280;59577;52.122;5.406;2023-04-10T12:11:55;101379.66;;;16.92;48.40
71735;BME280;59577;52.122;5.406;2023-04-10T12:14:36;101381.31;;;17.12;48.77
71735;BME280;59577;52.122;5.406;2023-04-10T12:17:05;101373.19;;;17.33;48.34
71735;BME280;59577;52.122;5.406;2023-04-10T12:19:36;101382.13;;;17.19;48.19
71735;BME280;59577;52.122;5.406;2023-04-10T12:22:03;101364.47;;;17.02;48.25
71735;BME280;59577;52.122;5.406;2023-04-10T12:24:47;101364.03;;;16.93;49.38
71735;BME280;59577;52.122;5.406;2023-04-10T12:27:24;101354.22;;;16.88;48.96
71735;BME280;59577;52.122;5.406;2023-04-10T12:29:53;101350.75;;;16.95;49.00
71735;BME280;59577;52.122;5.406;2023-04-10T12:32:22;101360.13;;;16.90;48.55
71735;BME280;59577;52.122;5.406;2023-04-10T12:34:54;101349.88;;;16.80;48.82
71735;BME280;59577;52.122;5.406;2023-04-10T12:37:25;101334.63;;;16.79;49.36
71735;BME280;59577;52.122;5.406;2023-04-10T12:40:11;101335.78;;;16.78;48.57
71735;BME280;59577;52.122;5.406;2023-04-10T12:42:39;101331.50;;;16.77;48.89
71735;BME280;59577;52.122;5.406;2023-04-10T12:45:08;101322.78;;;16.61;48.66
71735;BME280;59577;52.122;5.406;2023-04-10T12:47:46;101313.38;;;16.51;49.05
71735;BME280;59577;52.122;5.406;2023-04-10T12:50:15;101307.06;;;16.43;49.99
71735;BME280;59577;52.122;5.406;2023-04-10T12:52:44;101301.56;;;16.36;49.55
71735;BME280;59577;52.122;5.406;2023-04-10T12:55:15;101299.13;;;16.24;49.13
71735;BME280;59577;52.122;5.406;2023-04-10T12:57:44;101298.19;;;16.05;50.00
71735;BME280;59577;52.122;5.406;2023-04-10T13:00:16;101292.69;;;15.98;50.64
71735;BME280;59577;52.122;5.406;2023-04-10T13:02:43;101283.66;;;15.90;49.78
71735;BME280;59577;52.122;5.406;2023-04-10T13:05:10;101278.91;;;15.84;50.53
71735;BME280;59577;52.122;5.406;2023-04-10T13:07:37;101264.44;;;15.79;50.69
71735;BME280;59577;52.122;5.406;2023-04-10T13:10:07;101256.22;;;15.76;50.55
71735;BME280;59577;52.122;5.406;2023-04-10T13:12:34;101252.28;;;15.73;50.82
71735;BME280;59577;52.122;5.406;2023-04-10T13:15:03;101252.63;;;15.68;50.69
71735;BME280;59577;52.122;5.406;2023-04-10T13:17:30;101244.03;;;15.66;50.84
71735;BME280;59577;52.122;5.406;2023-04-10T13:19:56;101241.69;;;15.65;50.85
71735;BME280;59577;52.122;5.406;2023-04-10T13:22:23;101248.66;;;15.62;50.94
71735;BME280;59577;52.122;5.406;2023-04-10T13:24:49;101248.63;;;15.58;50.70
71735;BME280;59577;52.122;5.406;2023-04-10T13:27:16;101251.72;;;15.57;50.79
71735;BME280;59577;52.122;5.406;2023-04-10T13:29:42;101240.81;;;15.57;51.49
71735;BME280;59577;52.122;5.406;2023-04-10T13:32:09;101233.09;;;15.63;51.63
71735;BME280;59577;52.122;5.406;2023-04-10T13:34:36;101224.94;;;15.66;51.92
71735;BME280;59577;52.122;5.406;2023-04-10T13:37:03;101225.69;;;15.63;52.45
71735;BME280;59577;52.122;5.406;2023-04-10T13:39:30;101210.75;;;15.50;53.03